createdAt,value
2019-01-16T00:00:18.319Z,5.32
2019-01-16T00:01:11.188Z,5.21
2019-01-16T00:01:57.786Z,5.20
2019-01-16T00:02:59.556Z,5.18
2019-01-16T00:04:03.365Z,5.21
2019-01-16T00:05:03.888Z,5.16
2019-01-16T00:05:48.306Z,5.18
2019-01-16T00:06:41.395Z,5.16
2019-01-16T00:07:34.317Z,5.15
2019-01-16T00:08:27.510Z,5.09
2019-01-16T00:09:21.621Z,5.09
2019-01-16T00:10:28.140Z,5.11
2019-01-16T00:11:16.076Z,5.11
2019-01-16T00:12:13.810Z,5.15
2019-01-16T00:13:09.657Z,5.25
2019-01-16T00:14:16.964Z,5.14
2019-01-16T00:15:11.392Z,5.08
2019-01-16T00:16:14.845Z,5.24
2019-01-16T00:17:13.672Z,5.21
2019-01-16T00:18:17.087Z,5.17
2019-01-16T00:18:57.829Z,5.18
2019-01-16T00:19:44.154Z,5.17
2019-01-16T00:20:28.441Z,5.18
2019-01-16T00:21:18.936Z,5.16
2019-01-16T00:22:25.772Z,5.19
2019-01-16T00:23:18.613Z,5.18
2019-01-16T00:24:15.975Z,5.18
2019-01-16T00:25:08.632Z,5.23
2019-01-16T00:26:01.462Z,5.14
2019-01-16T00:27:02.125Z,5.11
2019-01-16T00:27:55.253Z,5.12
2019-01-16T00:28:48.387Z,5.13
2019-01-16T00:29:48.983Z,5.16
2019-01-16T00:30:36.098Z,5.19
2019-01-16T00:31:32.906Z,5.12
2019-01-16T00:32:17.367Z,5.15
2019-01-16T00:33:10.099Z,5.15
2019-01-16T00:33:59.822Z,5.18
2019-01-16T00:34:48.214Z,5.23
2019-01-16T00:35:41.409Z,5.27
2019-01-16T00:36:44.713Z,5.30
2019-01-16T00:37:33.943Z,5.20
2019-01-16T00:38:34.264Z,5.18
2019-01-16T00:39:31.751Z,5.28
2019-01-16T00:40:27.917Z,5.33
2019-01-16T00:41:22.398Z,5.30
2019-01-16T00:42:23.139Z,5.26
2019-01-16T00:43:16.460Z,5.26
2019-01-16T00:44:11.153Z,5.13
2019-01-16T00:44:58.363Z,5.15
2019-01-16T00:46:05.069Z,5.23
2019-01-16T00:46:58.186Z,5.27
2019-01-16T00:47:51.254Z,5.36
2019-01-16T00:48:41.011Z,5.32
2019-01-16T00:49:34.154Z,5.27
2019-01-16T00:50:31.600Z,5.25
2019-01-16T00:51:24.677Z,5.25
2019-01-16T00:52:22.256Z,5.20
2019-01-16T00:53:11.012Z,5.13
2019-01-16T00:54:08.957Z,5.10
2019-01-16T00:55:02.672Z,5.05
2019-01-16T00:55:54.268Z,5.12
2019-01-16T00:56:55.231Z,5.17
2019-01-16T00:57:58.848Z,5.13
2019-01-16T00:58:56.197Z,5.10
2019-01-16T00:59:50.666Z,5.09
2019-01-16T01:00:35.541Z,5.07
2019-01-16T01:01:31.861Z,5.06
2019-01-16T01:02:25.105Z,5.08
2019-01-16T01:03:34.458Z,5.08
2019-01-16T01:04:34.956Z,5.07
2019-01-16T01:05:31.284Z,5.13
2019-01-16T01:06:24.042Z,5.14
2019-01-16T01:07:30.596Z,5.13
2019-01-16T01:08:23.460Z,5.11
2019-01-16T01:09:24.110Z,5.22
2019-01-16T01:10:17.063Z,5.17
2019-01-16T01:11:11.513Z,5.15
2019-01-16T01:12:05.181Z,5.10
2019-01-16T01:12:59.065Z,5.19
2019-01-16T01:13:41.263Z,5.20
2019-01-16T01:14:31.915Z,5.17
2019-01-16T01:15:22.746Z,5.19
2019-01-16T01:16:17.483Z,5.20
2019-01-16T01:17:02.290Z,5.20
2019-01-16T01:17:55.668Z,5.32
2019-01-16T01:18:44.091Z,5.35
2019-01-16T01:19:36.945Z,5.31
2019-01-16T01:20:30.247Z,5.24
2019-01-16T01:21:27.760Z,5.21
2019-01-16T01:22:11.358Z,5.17
2019-01-16T01:22:58.481Z,5.20
2019-01-16T01:23:43.728Z,5.20
2019-01-16T01:24:30.850Z,5.21
2019-01-16T01:25:40.974Z,5.21
2019-01-16T01:26:38.409Z,5.38
2019-01-16T01:27:40.599Z,5.26
2019-01-16T01:28:27.162Z,5.15
2019-01-16T01:29:21.626Z,5.26
2019-01-16T01:30:19.224Z,5.18
2019-01-16T01:31:13.929Z,5.10
2019-01-16T01:32:11.182Z,5.15
2019-01-16T01:33:04.601Z,5.14
2019-01-16T01:34:04.375Z,5.08
2019-01-16T01:35:07.743Z,5.13
2019-01-16T01:36:13.392Z,5.09
2019-01-16T01:37:06.547Z,5.21
2019-01-16T01:38:03.776Z,5.22
2019-01-16T01:38:50.274Z,5.32
2019-01-16T01:39:43.090Z,5.18
2019-01-16T01:40:33.535Z,5.14
2019-01-16T01:41:37.071Z,5.11
2019-01-16T01:42:29.607Z,5.14
2019-01-16T01:43:26.740Z,5.16
2019-01-16T01:44:17.757Z,5.13
2019-01-16T01:45:12.554Z,5.07
2019-01-16T01:46:19.102Z,5.20
2019-01-16T01:47:19.488Z,5.20
2019-01-16T01:48:39.802Z,5.25
2019-01-16T01:49:28.277Z,5.19
2019-01-16T01:50:29.925Z,5.24
2019-01-16T01:51:27.553Z,5.21
2019-01-16T01:52:34.233Z,5.19
2019-01-16T01:53:24.351Z,5.22
2019-01-16T01:54:18.277Z,5.23
2019-01-16T01:55:16.143Z,5.27
2019-01-16T01:56:18.787Z,5.26
2019-01-16T01:57:22.899Z,5.29
2019-01-16T01:58:20.165Z,5.24
2019-01-16T01:59:14.615Z,5.29
2019-01-16T02:00:09.299Z,5.20
2019-01-16T02:01:09.827Z,5.19
2019-01-16T02:02:04.888Z,5.16
2019-01-16T02:03:08.555Z,5.18
2019-01-16T02:04:01.574Z,5.18
2019-01-16T02:04:58.622Z,5.14
2019-01-16T02:05:57.106Z,5.12
2019-01-16T02:06:50.103Z,5.18
2019-01-16T02:07:50.597Z,5.17
2019-01-16T02:08:48.050Z,5.31
2019-01-16T02:09:44.540Z,5.30
2019-01-16T02:10:41.726Z,5.25
2019-01-16T02:11:34.594Z,5.22
2019-01-16T02:12:35.094Z,5.31
2019-01-16T02:13:34.170Z,5.27
2019-01-16T02:14:28.735Z,5.24
2019-01-16T02:15:22.094Z,5.23
2019-01-16T02:16:15.313Z,5.18
2019-01-16T02:17:18.913Z,5.23
2019-01-16T02:18:19.417Z,5.17
2019-01-16T02:19:06.815Z,5.21
2019-01-16T02:20:13.075Z,5.22
2019-01-16T02:21:16.608Z,5.18
2019-01-16T02:22:10.994Z,5.24
2019-01-16T02:23:20.544Z,5.18
2019-01-16T02:24:17.580Z,5.20
2019-01-16T02:25:06.938Z,5.15
2019-01-16T02:26:07.378Z,5.20
2019-01-16T02:27:00.156Z,5.19
2019-01-16T02:27:46.964Z,5.24
2019-01-16T02:28:39.802Z,5.19
2019-01-16T02:29:40.399Z,5.27
2019-01-16T02:30:34.925Z,5.20
2019-01-16T02:31:25.126Z,5.19
2019-01-16T02:32:24.615Z,5.34
2019-01-16T02:33:17.567Z,5.35
2019-01-16T02:34:01.889Z,5.31
2019-01-16T02:34:58.768Z,5.20
2019-01-16T02:35:46.677Z,5.20
2019-01-16T02:36:47.027Z,5.15
2019-01-16T02:37:41.648Z,5.16
2019-01-16T02:38:51.202Z,5.20
2019-01-16T02:39:45.596Z,5.27
2019-01-16T02:40:31.701Z,5.19
2019-01-16T02:41:41.857Z,5.18
2019-01-16T02:42:36.252Z,5.19
2019-01-16T02:43:29.105Z,5.18
2019-01-16T02:44:29.317Z,5.23
2019-01-16T02:45:23.923Z,5.18
2019-01-16T02:46:27.428Z,5.33
2019-01-16T02:47:23.176Z,5.27
2019-01-16T02:48:35.511Z,5.21
2019-01-16T02:49:35.251Z,5.21
2019-01-16T02:50:22.345Z,5.25
2019-01-16T02:51:31.701Z,5.22
2019-01-16T02:52:41.192Z,5.23
2019-01-16T02:53:34.211Z,5.22
2019-01-16T02:54:27.321Z,5.25
2019-01-16T02:55:20.146Z,5.18
2019-01-16T02:56:26.760Z,5.19
2019-01-16T02:57:27.657Z,5.22
2019-01-16T02:58:19.956Z,5.20
2019-01-16T02:59:14.746Z,5.17
2019-01-16T02:59:55.352Z,5.30
2019-01-16T03:00:56.116Z,5.29
2019-01-16T03:01:49.541Z,5.28
2019-01-16T03:02:59.270Z,5.18
2019-01-16T03:03:52.163Z,5.20
2019-01-16T03:04:55.615Z,5.29
2019-01-16T03:05:42.732Z,5.27
2019-01-16T03:06:35.332Z,5.30
2019-01-16T03:07:22.364Z,5.31
2019-01-16T03:08:08.899Z,5.43
2019-01-16T03:09:01.071Z,5.33
2019-01-16T03:09:53.422Z,5.29
2019-01-16T03:10:46.191Z,5.25
2019-01-16T03:11:39.660Z,5.30
2019-01-16T03:12:32.963Z,5.36
2019-01-16T03:13:30.129Z,5.23
2019-01-16T03:14:33.609Z,5.28
2019-01-16T03:15:33.754Z,5.34
2019-01-16T03:16:43.353Z,5.34
2019-01-16T03:17:30.766Z,5.32
2019-01-16T03:18:37.111Z,5.34
2019-01-16T03:19:30.049Z,5.33
2019-01-16T03:20:27.918Z,5.40
2019-01-16T03:21:23.183Z,5.40
2019-01-16T03:22:14.997Z,5.32
2019-01-16T03:23:09.378Z,5.31
2019-01-16T03:24:17.702Z,5.26
2019-01-16T03:25:13.740Z,5.24
2019-01-16T03:26:10.900Z,5.30
2019-01-16T03:27:03.748Z,5.25
2019-01-16T03:28:04.468Z,5.30
2019-01-16T03:28:57.300Z,5.22
2019-01-16T03:29:50.678Z,5.27
2019-01-16T03:30:48.450Z,5.24
2019-01-16T03:31:41.557Z,5.19
2019-01-16T03:32:31.916Z,5.29
2019-01-16T03:33:24.915Z,5.29
2019-01-16T03:34:09.734Z,5.23
2019-01-16T03:35:13.362Z,5.24
2019-01-16T03:36:16.566Z,5.27
2019-01-16T03:37:09.812Z,5.36
2019-01-16T03:38:07.369Z,5.29
2019-01-16T03:38:57.091Z,5.31
2019-01-16T03:39:50.389Z,5.33
2019-01-16T03:40:55.736Z,5.32
2019-01-16T03:41:50.147Z,5.38
2019-01-16T03:42:36.619Z,5.30
2019-01-16T03:43:37.509Z,5.30
2019-01-16T03:44:24.219Z,5.28
2019-01-16T03:45:21.568Z,5.29
2019-01-16T03:46:18.758Z,5.34
2019-01-16T03:47:16.184Z,5.33
2019-01-16T03:48:22.720Z,5.23
2019-01-16T03:49:13.265Z,5.23
2019-01-16T03:50:02.830Z,5.21
2019-01-16T03:50:55.680Z,5.23
2019-01-16T03:51:40.526Z,5.19
2019-01-16T03:52:25.955Z,5.22
2019-01-16T03:53:26.601Z,5.25
2019-01-16T03:54:18.436Z,5.25
2019-01-16T03:55:24.959Z,5.21
2019-01-16T03:56:30.983Z,5.28
2019-01-16T03:57:37.003Z,5.37
2019-01-16T03:58:27.107Z,5.30
2019-01-16T03:59:11.760Z,5.32
2019-01-16T04:00:06.440Z,5.23
2019-01-16T04:00:52.055Z,5.26
2019-01-16T04:01:46.084Z,5.27
2019-01-16T04:02:43.844Z,5.36
2019-01-16T04:03:36.960Z,5.24
2019-01-16T04:04:20.759Z,5.26
2019-01-16T04:05:15.423Z,5.35
2019-01-16T04:06:01.515Z,5.34
2019-01-16T04:07:14.255Z,5.27
2019-01-16T04:08:11.743Z,5.22
2019-01-16T04:08:57.765Z,5.26
2019-01-16T04:09:45.702Z,5.24
2019-01-16T04:10:42.963Z,5.26
2019-01-16T04:11:43.453Z,5.28
2019-01-16T04:12:30.566Z,5.26
2019-01-16T04:13:24.964Z,5.33
2019-01-16T04:14:18.030Z,5.37
2019-01-16T04:15:15.493Z,5.25
2019-01-16T04:16:04.511Z,5.38
2019-01-16T04:17:01.871Z,5.38
2019-01-16T04:17:55.073Z,5.40
2019-01-16T04:18:48.315Z,5.28
2019-01-16T04:19:46.753Z,5.28
2019-01-16T04:20:53.337Z,5.30
2019-01-16T04:21:47.714Z,5.33
2019-01-16T04:22:42.409Z,5.33
2019-01-16T04:23:28.105Z,5.45
2019-01-16T04:24:19.194Z,5.32
2019-01-16T04:25:12.044Z,5.31
2019-01-16T04:26:15.909Z,5.39
2019-01-16T04:27:22.555Z,5.39
2019-01-16T04:28:18.747Z,5.33
2019-01-16T04:29:13.124Z,5.25
2019-01-16T04:29:58.630Z,5.30
2019-01-16T04:30:59.252Z,5.34
2019-01-16T04:31:54.550Z,5.29
2019-01-16T04:32:57.857Z,5.31
2019-01-16T04:34:10.483Z,5.48
2019-01-16T04:35:14.243Z,5.33
2019-01-16T04:36:07.350Z,5.25
2019-01-16T04:37:00.318Z,5.29
2019-01-16T04:37:54.771Z,5.30
2019-01-16T04:38:54.987Z,5.36
2019-01-16T04:39:47.816Z,5.21
2019-01-16T04:40:59.983Z,5.20
2019-01-16T04:41:52.779Z,5.35
2019-01-16T04:42:41.899Z,5.29
2019-01-16T04:43:34.506Z,5.24
2019-01-16T04:44:26.778Z,5.23
2019-01-16T04:45:29.940Z,5.23
2019-01-16T04:46:29.919Z,5.30
2019-01-16T04:47:23.068Z,5.24
2019-01-16T04:48:09.611Z,5.19
2019-01-16T04:49:07.310Z,5.26
2019-01-16T04:50:04.553Z,5.33
2019-01-16T04:50:57.454Z,5.19
2019-01-16T04:52:00.777Z,5.21
2019-01-16T04:53:04.392Z,5.14
2019-01-16T04:54:04.438Z,5.17
2019-01-16T04:55:01.787Z,5.18
2019-01-16T04:56:08.254Z,5.16
2019-01-16T04:57:01.516Z,5.28
2019-01-16T04:57:55.931Z,5.17
2019-01-16T04:58:49.234Z,5.28
2019-01-16T04:59:43.672Z,5.26
2019-01-16T05:00:44.113Z,5.20
2019-01-16T05:01:42.526Z,5.13
2019-01-16T05:02:36.912Z,5.16
2019-01-16T05:03:31.714Z,5.14
2019-01-16T05:04:40.945Z,5.10
2019-01-16T05:05:41.215Z,5.27
2019-01-16T05:06:53.803Z,5.31
2019-01-16T05:07:55.039Z,5.21
2019-01-16T05:08:44.697Z,5.21
2019-01-16T05:09:30.836Z,5.12
2019-01-16T05:10:26.314Z,5.17
2019-01-16T05:11:23.595Z,5.16
2019-01-16T05:12:12.597Z,5.17
2019-01-16T05:13:07.071Z,5.17
2019-01-16T05:13:57.297Z,5.17
2019-01-16T05:14:54.599Z,5.26
2019-01-16T05:16:04.195Z,5.20
2019-01-16T05:16:58.605Z,5.18
2019-01-16T05:17:56.052Z,5.28
2019-01-16T05:18:56.348Z,5.25
2019-01-16T05:19:53.879Z,5.26
2019-01-16T05:20:43.003Z,5.18
2019-01-16T05:21:37.451Z,5.30
2019-01-16T05:22:32.100Z,5.24
2019-01-16T05:23:24.977Z,5.22
2019-01-16T05:24:18.071Z,5.17
2019-01-16T05:25:00.652Z,5.20
2019-01-16T05:26:10.017Z,5.19
2019-01-16T05:26:56.070Z,5.17
2019-01-16T05:27:49.394Z,5.16
2019-01-16T05:28:46.549Z,5.19
2019-01-16T05:29:45.981Z,5.20
2019-01-16T05:30:43.473Z,5.20
2019-01-16T05:31:35.714Z,5.24
2019-01-16T05:32:29.529Z,5.18
2019-01-16T05:33:27.866Z,5.20
2019-01-16T05:34:28.479Z,5.21
2019-01-16T05:35:26.260Z,5.18
2019-01-16T05:36:21.192Z,5.30
2019-01-16T05:37:14.384Z,5.31
2019-01-16T05:38:08.718Z,5.24
2019-01-16T05:39:10.106Z,5.21
2019-01-16T05:40:19.422Z,5.34
2019-01-16T05:41:19.498Z,5.18
2019-01-16T05:42:22.623Z,5.20
2019-01-16T05:43:07.857Z,5.19
2019-01-16T05:44:14.536Z,5.17
2019-01-16T05:45:14.658Z,5.20
2019-01-16T05:46:09.336Z,5.28
2019-01-16T05:47:15.708Z,5.35
2019-01-16T05:48:22.022Z,5.22
2019-01-16T05:49:19.062Z,5.19
2019-01-16T05:50:13.450Z,5.20
2019-01-16T05:51:19.626Z,5.21
2019-01-16T05:52:08.717Z,5.17
2019-01-16T05:52:52.100Z,5.20
2019-01-16T05:53:45.579Z,5.17
2019-01-16T05:54:52.117Z,5.16
2019-01-16T05:55:46.596Z,5.10
2019-01-16T05:56:39.831Z,5.14
2019-01-16T05:57:37.157Z,5.15
2019-01-16T05:58:34.369Z,5.13
2019-01-16T05:59:28.896Z,5.18
2019-01-16T06:00:33.414Z,5.23
2019-01-16T06:01:24.705Z,5.18
2019-01-16T06:02:21.619Z,5.16
2019-01-16T06:03:18.753Z,5.17
2019-01-16T06:04:11.934Z,5.16
2019-01-16T06:05:09.437Z,5.11
2019-01-16T06:06:02.723Z,5.18
2019-01-16T06:07:02.043Z,5.12
2019-01-16T06:07:59.241Z,5.24
2019-01-16T06:09:05.600Z,5.23
2019-01-16T06:10:00.273Z,5.14
2019-01-16T06:11:07.106Z,5.10
2019-01-16T06:12:14.538Z,5.16
2019-01-16T06:13:17.767Z,5.18
2019-01-16T06:14:04.403Z,5.13
2019-01-16T06:14:58.819Z,5.17
2019-01-16T06:16:05.394Z,5.18
2019-01-16T06:17:00.118Z,5.21
2019-01-16T06:17:57.686Z,5.10
2019-01-16T06:19:10.895Z,5.11
2019-01-16T06:20:07.828Z,5.09
2019-01-16T06:21:02.247Z,5.21
2019-01-16T06:22:00.933Z,5.13
2019-01-16T06:23:01.224Z,5.08
2019-01-16T06:23:55.932Z,5.06
2019-01-16T06:24:48.450Z,5.00
2019-01-16T06:25:45.930Z,5.04
2019-01-16T06:26:43.163Z,5.11
2019-01-16T06:27:40.647Z,5.15
2019-01-16T06:28:44.909Z,5.07
2019-01-16T06:29:45.177Z,5.06
2019-01-16T06:30:38.144Z,5.09
2019-01-16T06:31:31.300Z,5.08
2019-01-16T06:32:34.613Z,5.19
2019-01-16T06:33:21.860Z,5.13
2019-01-16T06:34:26.324Z,5.13
2019-01-16T06:35:30.053Z,5.12
2019-01-16T06:36:27.330Z,5.07
2019-01-16T06:37:27.415Z,5.00
2019-01-16T06:38:31.252Z,5.03
2019-01-16T06:39:26.109Z,5.02
2019-01-16T06:40:08.775Z,5.07
2019-01-16T06:41:01.969Z,5.09
2019-01-16T06:41:46.244Z,5.17
2019-01-16T06:42:49.996Z,5.13
2019-01-16T06:43:38.809Z,5.08
2019-01-16T06:44:42.025Z,5.12
2019-01-16T06:45:45.161Z,5.07
2019-01-16T06:46:43.697Z,5.23
2019-01-16T06:47:29.618Z,5.08
2019-01-16T06:48:24.276Z,5.05
2019-01-16T06:49:17.569Z,5.12
2019-01-16T06:50:16.532Z,5.03
2019-01-16T06:50:55.213Z,5.05
2019-01-16T06:51:45.219Z,5.06
2019-01-16T06:52:34.531Z,5.03
2019-01-16T06:53:27.674Z,5.08
2019-01-16T06:54:28.522Z,5.17
2019-01-16T06:55:21.742Z,5.19
2019-01-16T06:56:25.187Z,5.10
2019-01-16T06:57:29.113Z,5.16
2019-01-16T06:58:36.076Z,5.11
2019-01-16T06:59:36.517Z,4.98
2019-01-16T07:00:34.992Z,4.92
2019-01-16T07:01:32.721Z,4.98
2019-01-16T07:02:26.069Z,5.01
2019-01-16T07:03:29.560Z,5.11
2019-01-16T07:04:29.929Z,5.04
2019-01-16T07:05:37.014Z,5.11
2019-01-16T07:06:25.265Z,5.03
2019-01-16T07:07:30.883Z,5.10
2019-01-16T07:08:34.612Z,4.97
2019-01-16T07:09:26.238Z,4.99
2019-01-16T07:10:26.597Z,4.93
2019-01-16T07:11:15.061Z,5.05
2019-01-16T07:12:11.968Z,4.99
2019-01-16T07:13:12.613Z,4.91
2019-01-16T07:14:12.929Z,4.91
2019-01-16T07:15:11.209Z,5.00
2019-01-16T07:16:08.892Z,5.00
2019-01-16T07:17:02.019Z,5.07
2019-01-16T07:18:08.379Z,4.98
2019-01-16T07:18:55.736Z,5.08
2019-01-16T07:19:59.284Z,4.97
2019-01-16T07:20:54.115Z,4.93
2019-01-16T07:21:47.150Z,5.00
2019-01-16T07:22:44.355Z,4.96
2019-01-16T07:23:32.023Z,5.12
2019-01-16T07:24:32.465Z,5.10
2019-01-16T07:25:31.943Z,4.96
2019-01-16T07:26:29.653Z,4.88
2019-01-16T07:27:23.120Z,4.86
2019-01-16T07:28:16.198Z,4.84
2019-01-16T07:29:09.193Z,4.97
2019-01-16T07:30:02.564Z,4.93
2019-01-16T07:30:59.906Z,4.84
2019-01-16T07:31:52.799Z,4.86
2019-01-16T07:32:47.232Z,4.88
2019-01-16T07:33:33.235Z,4.93
2019-01-16T07:34:23.839Z,4.98
2019-01-16T07:35:11.858Z,4.94
2019-01-16T07:36:04.756Z,4.96
2019-01-16T07:37:06.351Z,4.93
2019-01-16T07:37:52.086Z,4.91
2019-01-16T07:39:01.655Z,4.97
2019-01-16T07:39:54.775Z,4.94
2019-01-16T07:40:40.756Z,4.94
2019-01-16T07:41:36.397Z,4.93
2019-01-16T07:42:29.392Z,4.92
2019-01-16T07:43:12.628Z,4.92
2019-01-16T07:44:02.030Z,5.08
2019-01-16T07:44:58.796Z,5.16
2019-01-16T07:45:43.170Z,5.10
2019-01-16T07:46:25.902Z,5.00
2019-01-16T07:47:20.568Z,5.03
2019-01-16T07:48:24.214Z,5.10
2019-01-16T07:49:30.839Z,4.95
2019-01-16T07:50:28.358Z,4.94
2019-01-16T07:51:26.076Z,4.88
2019-01-16T07:52:25.572Z,4.97
2019-01-16T07:53:32.118Z,4.96
2019-01-16T07:54:25.017Z,5.01
2019-01-16T07:55:18.170Z,4.94
2019-01-16T07:56:11.024Z,4.87
2019-01-16T07:57:09.682Z,4.86
2019-01-16T07:58:02.673Z,4.85
2019-01-16T07:59:11.949Z,4.91
2019-01-16T08:00:01.179Z,4.88
2019-01-16T08:00:55.893Z,4.94
2019-01-16T08:01:53.630Z,4.94
2019-01-16T08:02:50.873Z,4.92
2019-01-16T08:04:00.446Z,4.96
2019-01-16T08:05:00.777Z,5.03
2019-01-16T08:05:55.188Z,4.99
2019-01-16T08:06:52.134Z,4.96
2019-01-16T08:07:41.425Z,5.09
2019-01-16T08:08:31.496Z,5.02
2019-01-16T08:09:22.602Z,5.01
2019-01-16T08:10:36.154Z,4.96
2019-01-16T08:11:26.513Z,4.91
2019-01-16T08:12:19.579Z,5.05
2019-01-16T08:13:16.671Z,5.10
2019-01-16T08:14:11.233Z,5.06
2019-01-16T08:15:04.182Z,4.99
2019-01-16T08:16:01.645Z,4.88
2019-01-16T08:16:51.842Z,4.95
2019-01-16T08:17:47.308Z,4.96
2019-01-16T08:18:44.468Z,4.98
2019-01-16T08:19:48.259Z,4.93
2019-01-16T08:20:42.724Z,4.91
2019-01-16T08:21:39.544Z,4.93
2019-01-16T08:22:33.579Z,4.99
2019-01-16T08:23:46.166Z,5.01
2019-01-16T08:24:38.970Z,4.91
2019-01-16T08:25:39.202Z,5.01
2019-01-16T08:26:33.705Z,5.04
2019-01-16T08:27:33.602Z,5.04
2019-01-16T08:28:40.917Z,5.07
2019-01-16T08:29:38.150Z,5.00
2019-01-16T08:30:30.946Z,4.99
2019-01-16T08:31:27.096Z,5.00
2019-01-16T08:32:27.604Z,4.97
2019-01-16T08:33:20.404Z,5.06
2019-01-16T08:34:13.389Z,4.98
2019-01-16T08:35:16.828Z,5.01
2019-01-16T08:36:09.945Z,5.00
2019-01-16T08:37:12.836Z,5.04
2019-01-16T08:38:05.977Z,4.96
2019-01-16T08:39:01.210Z,4.94
2019-01-16T08:39:51.996Z,4.96
2019-01-16T08:40:45.113Z,4.98
2019-01-16T08:41:42.617Z,4.92
2019-01-16T08:42:37.224Z,4.96
2019-01-16T08:43:24.633Z,5.00
2019-01-16T08:44:13.754Z,5.00
2019-01-16T08:45:04.748Z,5.02
2019-01-16T08:45:51.308Z,5.07
2019-01-16T08:46:44.514Z,4.97
2019-01-16T08:47:47.935Z,4.99
2019-01-16T08:48:43.121Z,4.94
2019-01-16T08:49:36.169Z,5.03
2019-01-16T08:50:32.703Z,4.98
2019-01-16T08:51:25.044Z,5.08
2019-01-16T08:52:18.514Z,5.07
2019-01-16T08:53:18.759Z,4.97
2019-01-16T08:54:11.596Z,4.96
2019-01-16T08:55:15.189Z,4.89
2019-01-16T08:56:09.046Z,4.92
2019-01-16T08:57:03.461Z,5.03
2019-01-16T08:57:57.845Z,4.94
2019-01-16T08:58:58.995Z,5.02
2019-01-16T08:59:56.442Z,4.98
2019-01-16T09:01:03.058Z,4.98
2019-01-16T09:01:58.171Z,5.08
2019-01-16T09:03:01.797Z,4.98
2019-01-16T09:04:11.388Z,4.95
2019-01-16T09:04:59.764Z,5.03
2019-01-16T09:05:57.036Z,5.09
2019-01-16T09:06:54.157Z,5.11
2019-01-16T09:07:50.100Z,5.18
2019-01-16T09:08:47.642Z,5.18
2019-01-16T09:09:51.199Z,5.21
2019-01-16T09:10:44.570Z,5.23
2019-01-16T09:11:43.134Z,5.09
2019-01-16T09:12:44.913Z,5.02
2019-01-16T09:13:37.973Z,4.95
2019-01-16T09:14:32.369Z,5.08
2019-01-16T09:15:42.193Z,5.11
2019-01-16T09:16:31.627Z,5.07
2019-01-16T09:17:35.209Z,5.14
2019-01-16T09:18:27.853Z,5.20
2019-01-16T09:19:24.795Z,5.20
2019-01-16T09:20:16.792Z,5.16
2019-01-16T09:21:09.571Z,5.22
2019-01-16T09:22:09.374Z,5.07
2019-01-16T09:23:03.770Z,5.15
2019-01-16T09:24:07.279Z,5.12
2019-01-16T09:25:16.840Z,5.11
2019-01-16T09:26:23.439Z,4.99
2019-01-16T09:27:18.103Z,5.08
2019-01-16T09:28:10.899Z,5.03
2019-01-16T09:29:14.492Z,5.14
2019-01-16T09:30:07.281Z,5.16
2019-01-16T09:31:02.104Z,5.09
2019-01-16T09:31:55.040Z,5.12
2019-01-16T09:32:39.086Z,5.15
2019-01-16T09:33:33.589Z,5.21
2019-01-16T09:34:23.749Z,5.17
2019-01-16T09:35:20.976Z,5.34
2019-01-16T09:36:04.617Z,5.34
2019-01-16T09:37:04.778Z,5.29
2019-01-16T09:37:58.153Z,5.30
2019-01-16T09:38:47.746Z,5.29
2019-01-16T09:39:40.966Z,5.33
2019-01-16T09:40:33.685Z,5.37
2019-01-16T09:41:23.955Z,5.45
2019-01-16T09:42:17.506Z,5.24
2019-01-16T09:43:14.904Z,5.19
2019-01-16T09:44:11.245Z,5.30
2019-01-16T09:44:59.242Z,5.15
2019-01-16T09:45:52.185Z,5.24
2019-01-16T09:46:46.680Z,5.21
2019-01-16T09:47:50.310Z,5.24
2019-01-16T09:48:43.639Z,5.39
2019-01-16T09:49:36.544Z,5.48
2019-01-16T09:50:29.771Z,5.40
2019-01-16T09:51:42.405Z,5.33
2019-01-16T09:52:35.802Z,5.38
2019-01-16T09:53:32.787Z,5.65
2019-01-16T09:54:25.926Z,5.65
2019-01-16T09:55:21.534Z,5.43
2019-01-16T09:56:30.888Z,5.46
2019-01-16T09:57:24.138Z,5.34
2019-01-16T09:58:29.660Z,5.32
2019-01-16T09:59:22.608Z,5.32
2019-01-16T10:00:15.740Z,5.45
2019-01-16T10:01:22.278Z,5.57
2019-01-16T10:02:16.950Z,5.74
2019-01-16T10:03:17.691Z,5.62
2019-01-16T10:04:10.937Z,5.48
2019-01-16T10:05:08.659Z,5.46
2019-01-16T10:06:06.164Z,5.53
2019-01-16T10:07:00.542Z,5.39
2019-01-16T10:07:53.952Z,5.54
2019-01-16T10:08:46.907Z,5.42
2019-01-16T10:09:39.785Z,5.41
2019-01-16T10:10:40.263Z,5.44
2019-01-16T10:11:33.119Z,5.51
2019-01-16T10:12:30.277Z,5.54
2019-01-16T10:13:33.912Z,5.50
2019-01-16T10:14:24.573Z,5.59
2019-01-16T10:15:17.696Z,5.46
2019-01-16T10:16:20.171Z,5.49
2019-01-16T10:17:13.654Z,5.58
2019-01-16T10:18:15.280Z,5.51
2019-01-16T10:19:12.535Z,5.55
2019-01-16T10:20:24.940Z,5.44
2019-01-16T10:21:28.595Z,5.40
2019-01-16T10:22:27.411Z,5.56
2019-01-16T10:23:20.838Z,5.57
2019-01-16T10:24:18.619Z,5.50
2019-01-16T10:25:05.329Z,5.60
2019-01-16T10:25:48.631Z,5.65
2019-01-16T10:26:41.955Z,5.57
2019-01-16T10:27:36.388Z,5.49
2019-01-16T10:28:29.542Z,5.59
2019-01-16T10:29:22.457Z,5.61
2019-01-16T10:30:34.825Z,5.43
2019-01-16T10:31:40.368Z,5.48
2019-01-16T10:32:47.291Z,5.40
2019-01-16T10:33:40.379Z,5.50
2019-01-16T10:34:53.049Z,5.50
2019-01-16T10:35:56.348Z,5.39
2019-01-16T10:36:53.240Z,5.50
2019-01-16T10:37:40.033Z,5.51
2019-01-16T10:38:37.748Z,5.52
2019-01-16T10:39:40.903Z,5.45
2019-01-16T10:40:35.320Z,5.40
2019-01-16T10:41:29.716Z,5.52
2019-01-16T10:42:20.528Z,5.46
2019-01-16T10:43:08.481Z,5.48
2019-01-16T10:44:01.614Z,5.42
2019-01-16T10:45:01.485Z,5.38
2019-01-16T10:46:04.727Z,5.39
2019-01-16T10:47:02.172Z,5.66
2019-01-16T10:47:56.815Z,5.66
2019-01-16T10:49:00.058Z,5.62
2019-01-16T10:49:46.460Z,5.65
2019-01-16T10:50:39.026Z,5.68
2019-01-16T10:51:39.438Z,5.73
2019-01-16T10:52:34.116Z,5.78
2019-01-16T10:53:27.234Z,5.87
2019-01-16T10:54:17.123Z,5.86
2019-01-16T10:55:10.028Z,5.82
2019-01-16T10:56:10.560Z,5.63
2019-01-16T10:57:07.848Z,5.58
2019-01-16T10:58:00.993Z,5.63
2019-01-16T10:58:54.126Z,5.68
2019-01-16T10:59:54.323Z,5.70
2019-01-16T11:00:51.275Z,5.65
2019-01-16T11:02:03.639Z,5.72
2019-01-16T11:02:56.481Z,5.62
2019-01-16T11:03:54.441Z,5.70
2019-01-16T11:04:48.979Z,5.71
2019-01-16T11:05:43.374Z,5.56
2019-01-16T11:06:40.791Z,5.48
2019-01-16T11:07:35.498Z,5.53
2019-01-16T11:08:35.975Z,5.53
2019-01-16T11:09:36.625Z,5.64
2019-01-16T11:10:37.960Z,5.92
2019-01-16T11:11:41.579Z,5.75
2019-01-16T11:12:35.992Z,5.86
2019-01-16T11:13:36.378Z,5.70
2019-01-16T11:14:46.047Z,5.64
2019-01-16T11:15:46.484Z,5.51
2019-01-16T11:16:42.838Z,5.62
2019-01-16T11:17:35.245Z,5.69
2019-01-16T11:18:28.280Z,5.69
2019-01-16T11:19:19.614Z,5.78
2019-01-16T11:20:26.260Z,5.77
2019-01-16T11:21:29.714Z,5.77
2019-01-16T11:22:25.134Z,5.71
2019-01-16T11:23:21.112Z,5.62
2019-01-16T11:24:05.507Z,5.71
2019-01-16T11:25:15.435Z,5.65
2019-01-16T11:26:05.768Z,5.66
2019-01-16T11:27:12.165Z,5.74
2019-01-16T11:28:24.671Z,5.78
2019-01-16T11:29:17.352Z,5.81
2019-01-16T11:30:17.407Z,5.92
2019-01-16T11:31:18.208Z,6.08
2019-01-16T11:32:10.869Z,6.25
2019-01-16T11:33:05.409Z,6.25
2019-01-16T11:34:14.768Z,6.15
2019-01-16T11:35:03.579Z,6.22
2019-01-16T11:36:05.241Z,6.26
2019-01-16T11:36:58.337Z,6.05
2019-01-16T11:38:05.097Z,6.05
2019-01-16T11:39:04.055Z,6.05
2019-01-16T11:39:53.483Z,6.14
2019-01-16T11:40:40.940Z,5.96
2019-01-16T11:41:21.901Z,5.98
2019-01-16T11:42:15.044Z,6.20
2019-01-16T11:43:21.586Z,6.28
2019-01-16T11:44:12.230Z,5.94
2019-01-16T11:45:14.196Z,5.94
2019-01-16T11:46:07.019Z,5.90
2019-01-16T11:46:51.540Z,6.08
2019-01-16T11:47:55.404Z,6.08
2019-01-16T11:48:42.336Z,6.03
2019-01-16T11:49:36.791Z,6.11
2019-01-16T11:50:31.571Z,6.37
2019-01-16T11:51:44.748Z,6.29
2019-01-16T11:52:36.820Z,6.28
2019-01-16T11:53:28.162Z,6.29
2019-01-16T11:54:21.309Z,6.28
2019-01-16T11:55:14.488Z,6.17
2019-01-16T11:56:12.182Z,6.22
2019-01-16T11:57:12.664Z,6.23
2019-01-16T11:58:22.185Z,6.23
2019-01-16T11:59:23.650Z,6.26
2019-01-16T12:00:08.959Z,6.11
2019-01-16T12:01:21.169Z,6.14
2019-01-16T12:02:18.932Z,6.25
2019-01-16T12:03:11.988Z,6.15
2019-01-16T12:04:04.829Z,6.25
2019-01-16T12:05:01.210Z,6.21
2019-01-16T12:05:55.887Z,6.38
2019-01-16T12:07:02.757Z,6.28
2019-01-16T12:08:00.059Z,6.38
2019-01-16T12:08:53.570Z,6.41
2019-01-16T12:09:52.667Z,6.68
2019-01-16T12:10:50.323Z,7.02
2019-01-16T12:11:44.979Z,7.03
2019-01-16T12:12:45.299Z,7.03
2019-01-16T12:13:48.852Z,7.21
2019-01-16T12:14:46.308Z,7.26
2019-01-16T12:15:39.296Z,7.57
2019-01-16T12:16:33.746Z,8.11
2019-01-16T12:17:29.752Z,7.98
2019-01-16T12:18:36.214Z,7.68
2019-01-16T12:19:36.367Z,8.22
2019-01-16T12:20:45.787Z,7.81
2019-01-16T12:21:40.706Z,7.43
2019-01-16T12:22:33.778Z,7.95
2019-01-16T12:23:34.034Z,7.95
2019-01-16T12:24:34.450Z,8.53
2019-01-16T12:25:20.163Z,9.01
2019-01-16T12:26:18.193Z,9.01
2019-01-16T12:27:30.820Z,9.07
2019-01-16T12:28:40.621Z,9.17
2019-01-16T12:29:33.483Z,9.40
2019-01-16T12:30:41.261Z,9.40